Time;durP1;ratioP1;P1;durP2;ratioP2;P2;SDS_P1;SDS_P2;PMS_P1;PMS_P2;Temp;Humidity;BMP_temperature;BMP_pressure;BME280_temperature;BME280_humidity;BME280_pressure;Samples;Min_cycle;Max_cycle;Signal;HPM_P1;HPM_P2
2021/04/01 00:01:14;;;;;;;8.10;5.03;;;13.50;81.60;;;;;;5111456;28;20482;-86
2021/04/01 00:03:45;;;;;;;11.80;4.93;;;13.50;81.90;;;;;;5104245;28;20433;-85
2021/04/01 00:06:12;;;;;;;8.90;5.50;;;13.50;81.90;;;;;;5105156;28;20450;-84
2021/04/01 00:08:41;;;;;;;9.23;5.10;;;13.50;82.00;;;;;;5104634;28;20409;-86
2021/04/01 00:11:08;;;;;;;12.03;5.43;;;13.40;82.40;;;;;;5110450;28;20426;-84
2021/04/01 00:13:35;;;;;;;9.13;5.33;;;13.40;82.90;;;;;;5090662;28;20457;-84
2021/04/01 00:16:01;;;;;;;9.10;4.60;;;13.30;83.40;;;;;;5085335;28;20450;-86
2021/04/01 00:18:28;;;;;;;12.20;6.07;;;13.30;83.60;;;;;;5083685;28;20448;-87
2021/04/01 00:20:54;;;;;;;10.63;5.20;;;13.30;83.70;;;;;;5083665;28;20660;-86
2021/04/01 00:23:20;;;;;;;10.53;4.73;;;13.30;83.70;;;;;;5082105;28;20523;-84
2021/04/01 00:25:47;;;;;;;11.33;5.40;;;13.30;83.60;;;;;;5084012;28;20464;-83
2021/04/01 00:28:14;;;;;;;11.40;5.60;;;13.30;83.90;;;;;;5084350;28;20546;-86
2021/04/01 00:30:40;;;;;;;8.83;5.30;;;13.30;84.30;;;;;;5084618;28;20472;-85
2021/04/01 00:33:07;;;;;;;14.43;6.17;;;13.20;84.50;;;;;;5084602;28;20463;-83
2021/04/01 00:35:33;;;;;;;9.00;5.17;;;13.20;84.80;;;;;;5083974;28;20507;-83
2021/04/01 00:38:00;;;;;;;10.77;5.40;;;13.10;84.80;;;;;;5083955;28;20551;-85
2021/04/01 00:40:27;;;;;;;9.93;5.07;;;13.10;85.20;;;;;;5094009;28;20463;-86
2021/04/01 00:42:54;;;;;;;9.27;5.30;;;13.00;85.30;;;;;;5106093;28;20488;-82
2021/04/01 00:45:22;;;;;;;9.50;5.40;;;13.00;85.50;;;;;;5105851;28;21085;-87
2021/04/01 00:47:51;;;;;;;9.70;5.20;;;13.00;85.70;;;;;;5091299;28;20480;-82
2021/04/01 00:50:20;;;;;;;8.30;4.63;;;13.00;85.70;;;;;;5083542;28;20483;-84
2021/04/01 00:52:47;;;;;;;9.93;4.33;;;13.10;85.90;;;;;;5083512;28;20447;-85
2021/04/01 00:55:14;;;;;;;9.80;5.00;;;13.00;85.90;;;;;;5082486;28;20411;-84
2021/04/01 00:57:43;;;;;;;10.03;5.17;;;13.00;85.90;;;;;;5083530;28;20488;-85
2021/04/01 01:00:15;;;;;;;10.10;5.60;;;13.00;86.10;;;;;;5085199;28;20431;-84
2021/04/01 01:02:41;;;;;;;9.40;6.10;;;12.90;86.10;;;;;;5103575;28;20461;-87
2021/04/01 01:05:10;;;;;;;9.73;4.83;;;12.90;86.40;;;;;;5105361;28;20434;-85
2021/04/01 01:07:37;;;;;;;10.83;5.20;;;12.90;86.70;;;;;;5104431;28;20478;-87
2021/04/01 01:10:06;;;;;;;8.00;5.17;;;12.90;86.80;;;;;;5104134;28;20460;-85
2021/04/01 01:12:33;;;;;;;8.83;5.43;;;12.90;86.80;;;;;;5104831;28;20439;-86
2021/04/01 01:15:00;;;;;;;10.47;5.27;;;12.80;87.00;;;;;;5111193;28;20499;-83
2021/04/01 01:17:28;;;;;;;8.33;5.20;;;12.90;87.50;;;;;;5107036;28;20564;-86
2021/04/01 01:19:55;;;;;;;11.70;5.53;;;12.70;87.50;;;;;;5110269;28;20463;-84
2021/04/01 01:22:22;;;;;;;8.60;5.47;;;12.70;87.40;;;;;;5108838;28;20422;-85
2021/04/01 01:24:51;;;;;;;12.53;5.50;;;12.80;87.60;;;;;;5104247;28;20454;-87
2021/04/01 01:27:18;;;;;;;10.73;6.10;;;12.80;87.50;;;;;;5102713;28;21029;-86
2021/04/01 01:29:47;;;;;;;11.93;5.30;;;12.90;87.70;;;;;;5101185;28;20540;-85
2021/04/01 01:32:14;;;;;;;12.23;6.00;;;12.80;87.50;;;;;;5101954;28;20450;-85
2021/04/01 01:34:40;;;;;;;7.83;4.90;;;12.80;87.90;;;;;;5097319;28;20458;-83
2021/04/01 01:37:07;;;;;;;8.17;5.50;;;12.80;88.00;;;;;;5103346;28;20474;-85
2021/04/01 01:39:33;;;;;;;9.17;5.63;;;12.80;88.10;;;;;;5102517;28;20515;-86
2021/04/01 01:42:00;;;;;;;9.43;5.03;;;12.70;88.30;;;;;;5088350;28;20427;-87
2021/04/01 01:44:27;;;;;;;7.77;5.60;;;12.70;88.70;;;;;;5083033;28;20447;-85
2021/04/01 01:46:53;;;;;;;9.43;4.67;;;12.80;88.80;;;;;;5082526;28;20559;-86
2021/04/01 01:49:19;;;;;;;9.70;5.40;;;12.80;88.70;;;;;;5082462;28;20455;-87
2021/04/01 01:51:46;;;;;;;8.80;5.73;;;12.70;88.50;;;;;;5083465;28;20483;-85
2021/04/01 01:54:12;;;;;;;7.30;4.97;;;12.70;88.90;;;;;;5082988;28;20452;-86
2021/04/01 01:56:39;;;;;;;8.57;5.20;;;12.70;89.00;;;;;;5088345;28;20486;-83
2021/04/01 01:59:06;;;;;;;8.57;5.70;;;12.60;89.10;;;;;;5107405;28;20487;-87
2021/04/01 02:01:34;;;;;;;11.80;5.90;;;12.60;89.20;;;;;;5090525;28;20469;-84
2021/04/01 02:04:03;;;;;;;10.00;5.50;;;12.60;89.50;;;;;;5083200;28;20929;-87
2021/04/01 02:06:30;;;;;;;8.30;5.07;;;12.60;89.70;;;;;;5083284;28;20460;-83
2021/04/01 02:08:57;;;;;;;9.10;5.50;;;12.50;89.90;;;;;;5092814;28;20433;-86
2021/04/01 02:11:24;;;;;;;8.43;4.80;;;12.50;90.00;;;;;;5097663;28;20438;-84
2021/04/01 02:13:50;;;;;;;8.70;5.50;;;12.50;90.00;;;;;;5083288;28;20496;-87
2021/04/01 02:16:18;;;;;;;9.77;5.57;;;12.40;90.20;;;;;;5086452;28;20500;-84
2021/04/01 02:18:44;;;;;;;9.73;5.43;;;12.40;90.40;;;;;;5087359;28;20443;-85
2021/04/01 02:21:13;;;;;;;9.73;4.90;;;12.40;90.50;;;;;;5082274;28;20427;-86
2021/04/01 02:23:40;;;;;;;9.23;5.50;;;12.30;91.00;;;;;;5085292;28;20455;-86
2021/04/01 02:26:07;;;;;;;13.30;5.00;;;12.30;90.80;;;;;;5104967;28;20564;-86
2021/04/01 02:28:35;;;;;;;7.57;4.43;;;12.30;90.70;;;;;;5102725;28;20490;-84
2021/04/01 02:31:03;;;;;;;10.07;5.17;;;12.40;90.70;;;;;;5098662;28;20487;-87
2021/04/01 02:33:33;;;;;;;10.63;5.53;;;12.40;90.80;;;;;;5089336;28;20936;-85
2021/04/01 02:36:00;;;;;;;9.53;5.00;;;12.40;90.80;;;;;;5077994;28;20496;-85
2021/04/01 02:38:27;;;;;;;8.20;5.73;;;12.40;90.80;;;;;;5086024;28;20461;-85
2021/04/01 02:40:54;;;;;;;13.20;6.03;;;12.40;91.00;;;;;;5091080;28;20432;-85
2021/04/01 02:43:24;;;;;;;9.67;5.87;;;12.40;90.80;;;;;;5112210;28;20475;-84
2021/04/01 02:45:51;;;;;;;8.23;4.90;;;12.30;90.90;;;;;;5099784;28;20453;-85
2021/04/01 02:48:17;;;;;;;10.33;5.13;;;12.20;91.10;;;;;;5085233;28;20449;-85
2021/04/01 02:50:44;;;;;;;9.67;6.00;;;12.20;91.30;;;;;;5081558;28;20894;-86
2021/04/01 02:53:11;;;;;;;11.17;5.90;;;12.30;91.30;;;;;;5088321;28;20478;-85
2021/04/01 02:55:37;;;;;;;10.23;5.80;;;12.20;91.30;;;;;;5095691;28;20486;-84
2021/04/01 02:58:04;;;;;;;10.40;4.90;;;12.20;91.50;;;;;;5101078;28;20989;-86
2021/04/01 03:00:34;;;;;;;9.40;5.70;;;12.20;91.50;;;;;;5085386;28;20549;-85
2021/04/01 03:03:04;;;;;;;15.83;6.60;;;12.20;91.50;;;;;;5096908;28;20908;-85
2021/04/01 03:05:30;;;;;;;8.50;5.30;;;12.20;91.60;;;;;;5097246;28;20447;-86
2021/04/01 03:07:57;;;;;;;8.93;5.70;;;12.30;91.60;;;;;;5096364;28;21053;-85
2021/04/01 03:10:24;;;;;;;11.00;5.63;;;12.40;91.60;;;;;;5096942;28;20865;-85
2021/04/01 03:12:50;;;;;;;14.57;6.03;;;12.30;91.60;;;;;;5096929;28;20518;-85
2021/04/01 03:15:17;;;;;;;8.90;5.53;;;12.20;92.10;;;;;;5088672;28;20510;-86
2021/04/01 03:17:44;;;;;;;11.57;6.33;;;12.20;91.70;;;;;;5086915;28;21512;-86
2021/04/01 03:20:12;;;;;;;10.77;6.00;;;12.20;91.80;;;;;;5098257;28;20469;-86
2021/04/01 03:22:40;;;;;;;10.63;4.90;;;12.20;91.90;;;;;;5101723;28;20463;-86
2021/04/01 03:25:09;;;;;;;8.73;5.53;;;12.20;92.00;;;;;;5097314;28;20433;-85
2021/04/01 03:27:37;;;;;;;9.83;6.50;;;12.10;92.20;;;;;;5096504;28;20479;-85
2021/04/01 03:30:06;;;;;;;8.17;6.07;;;12.10;92.10;;;;;;5095347;28;20534;-84
2021/04/01 03:32:33;;;;;;;12.30;5.90;;;12.10;92.30;;;;;;5094326;28;20438;-84
2021/04/01 03:35:00;;;;;;;11.17;5.33;;;12.00;92.40;;;;;;5094833;28;20451;-85
2021/04/01 03:37:27;;;;;;;10.23;5.60;;;11.90;92.50;;;;;;5101874;28;20484;-84
2021/04/01 03:39:54;;;;;;;10.40;6.10;;;12.00;92.60;;;;;;5104933;28;20549;-84
2021/04/01 03:42:21;;;;;;;13.07;5.30;;;12.00;92.70;;;;;;5110727;28;20451;-83
2021/04/01 03:44:48;;;;;;;18.10;6.20;;;12.00;92.70;;;;;;5102705;28;20525;-83
2021/04/01 03:47:15;;;;;;;11.57;5.70;;;12.00;92.60;;;;;;5102851;28;20463;-83
2021/04/01 03:49:41;;;;;;;12.00;6.07;;;12.00;92.60;;;;;;5112355;28;20439;-84
2021/04/01 03:52:08;;;;;;;14.80;7.07;;;12.00;92.60;;;;;;5101403;28;20524;-85
2021/04/01 03:54:34;;;;;;;17.83;6.80;;;12.00;92.70;;;;;;5098773;28;20480;-85
2021/04/01 03:57:02;;;;;;;10.60;6.07;;;12.00;92.80;;;;;;5111880;28;20530;-85
2021/04/01 03:59:36;;;;;;;10.93;5.80;;;11.90;92.90;;;;;;5097470;28;20475;-82
2021/04/01 04:04:57;;;;;;;11.10;6.40;;;11.90;93.30;;;;;;5098996;28;20439;-84
2021/04/01 04:10:22;;;;;;;10.97;5.60;;;11.80;93.60;;;;;;5097361;28;20818;-86
2021/04/01 04:12:59;;;;;;;8.30;5.63;;;11.80;93.60;;;;;;5096403;28;20444;-85
2021/04/01 04:15:26;;;;;;;12.43;6.10;;;11.70;93.70;;;;;;5078554;28;20411;-88
2021/04/01 04:17:53;;;;;;;10.83;6.30;;;11.70;93.80;;;;;;5076843;28;20472;-87
2021/04/01 04:20:20;;;;;;;12.63;6.40;;;11.70;93.90;;;;;;5077273;28;20458;-85
2021/04/01 04:22:48;;;;;;;10.00;5.73;;;11.80;93.90;;;;;;5085706;28;20503;-84
2021/04/01 04:25:16;;;;;;;14.90;6.70;;;11.80;93.90;;;;;;5097527;28;20455;-86
2021/04/01 04:27:59;;;;;;;8.07;6.40;;;11.80;94.00;;;;;;5091329;28;20484;-81
2021/04/01 04:30:28;;;;;;;10.03;5.50;;;11.80;93.90;;;;;;5081759;28;20430;-84
2021/04/01 04:32:55;;;;;;;14.17;7.07;;;11.70;93.90;;;;;;5095902;28;20495;-85
2021/04/01 04:35:22;;;;;;;11.80;7.07;;;11.70;94.10;;;;;;5097496;28;20992;-85
2021/04/01 04:37:48;;;;;;;13.00;5.90;;;11.60;94.20;;;;;;5099834;28;21231;-82
2021/04/01 04:40:15;;;;;;;12.23;6.33;;;11.70;94.60;;;;;;5100536;28;20534;-85
2021/04/01 04:42:42;;;;;;;12.47;6.30;;;11.70;94.60;;;;;;5084863;28;20472;-85
2021/04/01 04:45:09;;;;;;;12.33;6.80;;;11.60;94.70;;;;;;5085744;28;20929;-86
2021/04/01 04:47:37;;;;;;;20.70;6.00;;;11.50;95.00;;;;;;5085253;28;20496;-86
2021/04/01 04:50:04;;;;;;;12.83;6.50;;;11.40;95.30;;;;;;5089658;28;20438;-85
2021/04/01 04:52:32;;;;;;;10.23;5.63;;;11.40;95.40;;;;;;5091392;28;20422;-85
2021/04/01 04:55:01;;;;;;;13.23;6.30;;;11.60;95.40;;;;;;5100091;28;20462;-86
2021/04/01 04:57:30;;;;;;;12.43;6.70;;;11.50;95.20;;;;;;5100777;28;20510;-85
2021/04/01 05:00:08;;;;;;;10.97;6.27;;;11.50;95.20;;;;;;5100816;28;20443;-87
2021/04/01 05:05:22;;;;;;;8.50;5.70;;;11.60;95.20;;;;;;5090110;28;20418;-86
2021/04/01 05:07:48;;;;;;;12.47;7.30;;;11.60;95.10;;;;;;5080805;28;20483;-86
2021/04/01 05:10:14;;;;;;;11.47;6.17;;;11.60;95.10;;;;;;5081023;28;20437;-84
2021/04/01 05:12:41;;;;;;;12.57;6.43;;;11.60;95.20;;;;;;5081276;28;20825;-87
2021/04/01 05:15:09;;;;;;;11.20;6.20;;;11.60;95.30;;;;;;5080453;28;20541;-86
2021/04/01 05:17:36;;;;;;;12.10;7.23;;;11.70;95.20;;;;;;5079605;28;20480;-87
2021/04/01 05:20:06;;;;;;;11.63;6.43;;;11.60;95.30;;;;;;5079375;28;20454;-87
2021/04/01 05:22:37;;;;;;;10.83;6.20;;;11.70;95.20;;;;;;5080878;28;20439;-86
2021/04/01 05:25:06;;;;;;;12.47;6.57;;;11.50;95.30;;;;;;5100194;28;20882;-87
2021/04/01 05:27:36;;;;;;;13.27;6.10;;;11.50;95.50;;;;;;5099878;28;20475;-86
2021/04/01 05:30:02;;;;;;;9.83;7.13;;;11.40;95.70;;;;;;5099621;28;20797;-85
2021/04/01 05:32:31;;;;;;;9.27;5.63;;;11.40;95.90;;;;;;5117571;22;20526;-86
2021/04/01 05:34:59;;;;;;;17.80;7.03;;;11.40;96.10;;;;;;5075045;28;20554;-85
2021/04/01 05:37:27;;;;;;;13.93;6.30;;;11.50;96.40;;;;;;5075872;28;20476;-86
2021/04/01 05:39:54;;;;;;;16.73;7.53;;;11.50;95.80;;;;;;5075796;28;20940;-86
2021/04/01 05:42:22;;;;;;;12.00;6.33;;;11.70;95.80;;;;;;5076784;28;20478;-86
2021/04/01 05:44:50;;;;;;;19.33;6.73;;;11.70;95.60;;;;;;5077338;28;20536;-85
2021/04/01 05:47:21;;;;;;;13.97;7.03;;;11.80;95.50;;;;;;5077161;28;20454;-85
2021/04/01 05:50:01;;;;;;;15.40;8.20;;;11.90;95.40;;;;;;5076180;28;20538;-86
2021/04/01 05:58:32;;;;;;;12.20;7.30;;;12.20;94.70;;;;;;5076067;28;20495;-86
2021/04/01 06:01:25;;;;;;;11.73;6.90;;;12.40;94.20;;;;;;5078522;28;20422;-87
2021/04/01 06:04:29;;;;;;;9.20;6.30;;;12.40;94.20;;;;;;5088853;28;20451;-87
2021/04/01 06:07:31;;;;;;;10.07;6.57;;;12.40;94.30;;;;;;5065732;28;20447;-85
2021/04/01 06:10:32;;;;;;;13.30;7.07;;;12.50;94.20;;;;;;5092371;28;20427;-87
2021/04/01 06:13:01;;;;;;;11.70;6.17;;;12.50;94.00;;;;;;5066884;28;20467;-83
2021/04/01 06:15:29;;;;;;;11.80;6.80;;;12.40;94.20;;;;;;5092913;28;20460;-88
2021/04/01 06:18:08;;;;;;;13.50;6.50;;;12.40;94.30;;;;;;5092201;28;20931;-88
2021/04/01 06:20:37;;;;;;;16.03;6.93;;;12.40;94.40;;;;;;5082537;28;20460;-87
2021/04/01 06:23:04;;;;;;;16.03;6.97;;;12.40;94.50;;;;;;5081478;28;20557;-88
2021/04/01 06:25:35;;;;;;;12.20;6.37;;;12.40;94.40;;;;;;5082021;28;20481;-87
2021/04/01 06:28:21;;;;;;;12.07;6.50;;;12.50;94.30;;;;;;5085324;28;20463;-86
2021/04/01 06:30:51;;;;;;;10.40;7.03;;;12.60;94.20;;;;;;5077016;28;20472;-88
2021/04/01 06:33:21;;;;;;;12.80;6.63;;;12.80;94.00;;;;;;5083784;28;20553;-86
2021/04/01 06:35:50;;;;;;;13.57;7.37;;;12.80;93.90;;;;;;5079823;28;20993;-87
2021/04/01 06:38:24;;;;;;;15.87;8.13;;;12.90;93.90;;;;;;5086014;28;20478;-88
2021/04/01 06:41:30;;;;;;;14.10;7.53;;;13.10;93.70;;;;;;5071054;28;20472;-87
2021/04/01 06:47:12;;;;;;;12.20;8.10;;;13.50;92.90;;;;;;5065934;28;20461;-87
2021/04/01 06:50:04;;;;;;;16.90;7.50;;;13.70;92.60;;;;;;5070001;28;20455;-84
2021/04/01 06:52:34;;;;;;;16.83;7.80;;;13.80;92.40;;;;;;5088713;28;20535;-84
2021/04/01 06:55:13;;;;;;;16.80;7.70;;;13.80;92.00;;;;;;5092527;28;20932;-89
2021/04/01 06:57:59;;;;;;;15.43;8.97;;;14.10;92.00;;;;;;5087578;28;20454;-87
2021/04/01 07:00:40;;;;;;;12.80;7.80;;;14.30;91.50;;;;;;5080156;28;20452;-87
2021/04/01 07:03:12;;;;;;;11.87;7.23;;;14.60;91.20;;;;;;5080474;28;20982;-86
2021/04/01 07:05:53;;;;;;;14.10;7.17;;;14.90;90.70;;;;;;5078402;28;20451;-86
2021/04/01 07:08:32;;;;;;;13.30;7.67;;;15.00;90.30;;;;;;5078066;28;20448;-86
2021/04/01 07:11:02;;;;;;;21.33;9.00;;;15.20;90.10;;;;;;5079574;28;20978;-85
2021/04/01 07:13:35;;;;;;;19.37;9.20;;;15.40;89.60;;;;;;5078690;28;20920;-87
2021/04/01 07:16:12;;;;;;;16.60;8.70;;;15.50;88.60;;;;;;5077163;28;20443;-85
2021/04/01 07:18:57;;;;;;;18.90;9.10;;;15.50;87.50;;;;;;5083959;28;20426;-85
2021/04/01 07:46:29;;;;;;;21.67;11.10;;;15.80;87.20;;;;;;5078003;28;20443;-87
2021/04/01 07:49:02;;;;;;;12.77;9.10;;;16.00;86.90;;;;;;5076405;28;20973;-87
2021/04/01 07:54:15;;;;;;;19.30;10.40;;;16.30;86.30;;;;;;5078000;28;20434;-88
2021/04/01 07:56:48;;;;;;;14.90;9.93;;;16.40;85.40;;;;;;5078336;28;20480;-87
2021/04/01 07:59:27;;;;;;;25.23;9.90;;;16.50;85.50;;;;;;5077879;28;20457;-85
2021/04/01 08:02:05;;;;;;;14.10;10.00;;;16.60;85.20;;;;;;5075717;28;20423;-86
2021/04/01 08:04:32;;;;;;;14.70;10.00;;;16.60;85.00;;;;;;5077587;28;20438;-86
2021/04/01 08:07:10;;;;;;;17.00;10.87;;;16.70;84.20;;;;;;5083544;28;20435;-84
2021/04/01 08:09:42;;;;;;;29.03;9.80;;;16.60;84.10;;;;;;5088676;28;20434;-86
2021/04/01 08:12:20;;;;;;;20.80;9.80;;;16.70;84.20;;;;;;5089018;28;20419;-86
2021/04/01 08:14:54;;;;;;;15.30;10.30;;;16.90;84.30;;;;;;5089169;28;20488;-86
2021/04/01 08:17:27;;;;;;;19.23;9.27;;;17.00;83.50;;;;;;5086166;28;20472;-84
2021/04/01 08:19:59;;;;;;;15.63;10.47;;;17.20;82.40;;;;;;5062018;28;20457;-89
2021/04/01 08:22:29;;;;;;;16.10;9.53;;;17.10;82.30;;;;;;5063858;28;20487;-88
2021/04/01 08:25:00;;;;;;;22.00;9.80;;;17.10;82.70;;;;;;5064016;28;20460;-87
2021/04/01 08:27:34;;;;;;;15.70;9.83;;;17.20;82.90;;;;;;5081035;28;20506;-87
2021/04/01 08:35:32;;;;;;;16.90;10.33;;;17.40;82.40;;;;;;5080152;28;20444;-89
2021/04/01 08:38:10;;;;;;;18.20;10.17;;;17.40;82.40;;;;;;5080211;28;20450;-87
2021/04/01 08:40:39;;;;;;;21.23;10.20;;;17.50;82.70;;;;;;5085487;28;20462;-87
2021/04/01 08:43:39;;;;;;;18.07;10.70;;;17.70;82.80;;;;;;5083920;28;20979;-87
2021/04/01 08:46:19;;;;;;;15.03;9.47;;;17.80;82.40;;;;;;5075325;28;20474;-83
2021/04/01 08:49:17;;;;;;;18.03;9.17;;;18.10;81.70;;;;;;5097831;28;20411;-83
2021/04/01 08:52:04;;;;;;;14.10;10.20;;;18.10;81.60;;;;;;5072342;28;20948;-84
2021/04/01 08:54:36;;;;;;;15.60;9.83;;;18.00;82.20;;;;;;5088018;28;20416;-83
2021/04/01 08:57:09;;;;;;;16.57;9.90;;;18.00;82.90;;;;;;5075829;28;20467;-84
2021/04/01 09:00:01;;;;;;;14.73;9.00;;;18.00;82.90;;;;;;5076906;28;20437;-88
2021/04/01 09:02:29;;;;;;;14.57;8.70;;;18.20;82.90;;;;;;5067090;28;20461;-86
2021/04/01 09:04:59;;;;;;;16.87;9.93;;;18.40;81.90;;;;;;5063305;28;20480;-87
2021/04/01 09:07:28;;;;;;;18.80;9.20;;;18.40;81.40;;;;;;5077016;28;20915;-88
2021/04/01 09:10:02;;;;;;;16.83;8.97;;;18.40;81.50;;;;;;5078334;28;20475;-87
2021/04/01 09:12:34;;;;;;;22.17;9.00;;;18.80;81.40;;;;;;5079620;28;20479;-87
2021/04/01 09:15:03;;;;;;;17.50;10.63;;;19.00;79.90;;;;;;5080027;28;20476;-85
2021/04/01 09:17:32;;;;;;;16.63;9.40;;;19.10;79.70;;;;;;5080874;28;20483;-87
2021/04/01 09:20:11;;;;;;;18.60;10.17;;;19.30;79.30;;;;;;5081600;28;20465;-89
2021/04/01 09:22:43;;;;;;;10.53;7.90;;;19.50;78.20;;;;;;5083521;28;20472;-87
2021/04/01 09:25:11;;;;;;;16.50;8.17;;;19.40;77.70;;;;;;5083167;28;20452;-87
2021/04/01 09:27:47;;;;;;;12.70;7.13;;;19.40;77.60;;;;;;5082211;28;20527;-87
2021/04/01 09:30:17;;;;;;;18.47;7.60;;;19.40;76.90;;;;;;5077312;28;20495;-87
2021/04/01 09:32:47;;;;;;;14.17;7.37;;;19.40;77.00;;;;;;5086052;28;20472;-89
2021/04/01 09:35:16;;;;;;;13.23;7.27;;;19.40;77.00;;;;;;5083593;28;20456;-88
2021/04/01 09:37:53;;;;;;;10.50;7.20;;;19.50;77.10;;;;;;5082424;28;20513;-86
2021/04/01 09:40:20;;;;;;;10.00;7.43;;;19.60;77.00;;;;;;5082923;28;20641;-86
2021/04/01 09:42:47;;;;;;;15.80;7.23;;;19.70;76.70;;;;;;5083208;28;20500;-85
2021/04/01 09:45:25;;;;;;;11.93;7.00;;;19.70;76.60;;;;;;5083741;28;20449;-87
2021/04/01 09:47:54;;;;;;;17.80;7.20;;;19.70;76.60;;;;;;5082628;28;20446;-87
2021/04/01 09:50:24;;;;;;;12.87;8.00;;;19.70;77.40;;;;;;5079083;28;20452;-87
2021/04/01 09:52:59;;;;;;;13.27;7.63;;;19.70;76.20;;;;;;5078334;28;20476;-88
2021/04/01 09:55:34;;;;;;;12.50;7.30;;;19.70;76.20;;;;;;5077213;28;20430;-88
2021/04/01 09:58:14;;;;;;;12.27;7.50;;;19.80;76.10;;;;;;5080085;28;20558;-86
2021/04/01 10:01:00;;;;;;;15.60;8.03;;;19.80;76.00;;;;;;5082806;28;20443;-87
2021/04/01 10:03:30;;;;;;;18.97;8.80;;;19.90;75.70;;;;;;5085232;28;20559;-87
2021/04/01 10:05:57;;;;;;;15.70;8.20;;;20.10;75.70;;;;;;5083972;28;20476;-88
2021/04/01 10:08:25;;;;;;;16.67;8.53;;;20.20;75.70;;;;;;5094567;28;20434;-88
2021/04/01 10:10:53;;;;;;;14.07;7.67;;;20.30;75.40;;;;;;5092408;28;20459;-86
2021/04/01 10:13:21;;;;;;;14.50;8.10;;;20.30;74.80;;;;;;5091839;28;20480;-87
2021/04/01 10:15:49;;;;;;;11.57;8.20;;;20.40;74.70;;;;;;5089422;28;20433;-86
2021/04/01 10:18:19;;;;;;;14.03;8.70;;;20.40;74.60;;;;;;5089346;28;20509;-83
2021/04/01 10:20:51;;;;;;;16.37;8.27;;;20.50;74.40;;;;;;5089177;28;20474;-86
2021/04/01 10:23:19;;;;;;;13.50;7.50;;;20.60;74.30;;;;;;5088195;28;20571;-87
2021/04/01 10:25:50;;;;;;;11.83;8.53;;;20.60;73.80;;;;;;5084884;28;20464;-87
2021/04/01 10:28:35;;;;;;;12.20;7.50;;;20.80;74.70;;;;;;5082302;28;20927;-88
2021/04/01 10:31:14;;;;;;;16.70;7.50;;;20.80;73.20;;;;;;5086628;28;20832;-86
2021/04/01 10:33:56;;;;;;;19.53;10.00;;;20.80;73.20;;;;;;5078607;28;20511;-86
2021/04/01 10:36:28;;;;;;;12.77;7.37;;;21.00;72.80;;;;;;5077518;28;20533;-88
2021/04/01 10:39:06;;;;;;;15.10;7.07;;;21.10;72.50;;;;;;5070156;28;20424;-87
2021/04/01 10:41:43;;;;;;;13.87;6.40;;;21.20;71.70;;;;;;5077797;28;20591;-88
2021/04/01 10:44:11;;;;;;;13.57;6.60;;;21.40;70.70;;;;;;5078477;28;20461;-89
2021/04/01 10:46:41;;;;;;;10.47;5.93;;;21.40;70.10;;;;;;5078063;28;20452;-86
2021/04/01 10:49:07;;;;;;;15.70;5.60;;;21.40;69.90;;;;;;5077660;28;20455;-85
2021/04/01 10:51:34;;;;;;;8.73;5.70;;;21.50;70.00;;;;;;5077168;28;20902;-86
2021/04/01 10:54:09;;;;;;;11.40;5.67;;;21.70;69.50;;;;;;5076754;28;20515;-89
2021/04/01 10:56:45;;;;;;;10.27;5.40;;;21.90;69.10;;;;;;5075199;28;20502;-87
2021/04/01 10:59:11;;;;;;;12.73;5.80;;;22.00;67.90;;;;;;5055981;28;20922;-87
2021/04/01 11:01:41;;;;;;;11.97;5.90;;;22.10;67.70;;;;;;5057251;28;20483;-88
2021/04/01 11:04:12;;;;;;;9.70;5.80;;;22.10;67.30;;;;;;5058407;28;20794;-87
2021/04/01 11:06:41;;;;;;;7.97;5.00;;;22.20;66.90;;;;;;5063365;28;20946;-87
2021/04/01 11:09:11;;;;;;;9.80;5.53;;;22.30;66.70;;;;;;5076363;28;20773;-87
2021/04/01 11:11:55;;;;;;;8.77;4.20;;;22.30;66.80;;;;;;5078413;28;20445;-86
2021/04/01 11:14:24;;;;;;;11.03;5.10;;;22.40;66.00;;;;;;5077934;28;20903;-85
2021/04/01 11:16:52;;;;;;;6.60;4.80;;;22.40;65.80;;;;;;5078337;28;20484;-86
2021/04/01 11:19:21;;;;;;;8.03;4.37;;;22.40;65.50;;;;;;5082661;28;20444;-86
2021/04/01 11:21:49;;;;;;;7.73;4.53;;;22.50;65.00;;;;;;5084725;28;20440;-89
2021/04/01 11:24:28;;;;;;;8.63;4.43;;;22.50;64.70;;;;;;5081588;28;20452;-86
2021/04/01 11:26:55;;;;;;;14.47;4.93;;;22.50;65.20;;;;;;5080512;28;20480;-85
2021/04/01 11:29:30;;;;;;;10.43;5.03;;;22.60;65.10;;;;;;5080991;28;20448;-87
2021/04/01 11:32:21;;;;;;;8.00;5.17;;;22.60;64.80;;;;;;5081130;28;20490;-87
2021/04/01 11:34:48;;;;;;;13.70;4.90;;;22.50;64.30;;;;;;5109756;22;20483;-79
2021/04/01 11:37:18;;;;;;;12.37;5.23;;;22.50;64.70;;;;;;5091802;28;20534;-81
2021/04/01 11:39:46;;;;;;;11.33;5.07;;;22.60;64.70;;;;;;5085398;28;20559;-80
2021/04/01 11:42:15;;;;;;;6.63;4.50;;;22.70;64.70;;;;;;5094581;28;20511;-79
2021/04/01 11:44:43;;;;;;;8.57;5.10;;;22.70;64.40;;;;;;5093939;28;20483;-79
2021/04/01 11:47:18;;;;;;;9.73;3.57;;;22.80;63.80;;;;;;5085656;28;20444;-79
2021/04/01 11:49:45;;;;;;;6.23;4.17;;;22.80;63.40;;;;;;5075987;28;20435;-80
2021/04/01 11:52:12;;;;;;;12.50;4.00;;;22.90;63.50;;;;;;5076292;28;20934;-79
2021/04/01 11:54:39;;;;;;;12.93;4.57;;;22.80;63.20;;;;;;5082577;28;20487;-80
2021/04/01 11:57:17;;;;;;;6.37;3.90;;;22.90;63.20;;;;;;5086204;28;20526;-81
2021/04/01 11:59:55;;;;;;;9.63;4.40;;;23.00;62.70;;;;;;5078466;28;20499;-81
2021/04/01 12:02:23;;;;;;;6.20;4.20;;;23.10;62.30;;;;;;5078460;28;20493;-80
2021/04/01 12:04:53;;;;;;;8.70;4.50;;;23.10;62.00;;;;;;5082454;28;20478;-80
2021/04/01 12:07:20;;;;;;;5.57;3.47;;;23.20;61.40;;;;;;5084458;28;20455;-79
2021/04/01 12:09:48;;;;;;;6.50;3.53;;;23.30;60.00;;;;;;5079282;28;20531;-80
2021/04/01 12:12:15;;;;;;;7.90;4.10;;;23.20;60.10;;;;;;5079503;28;20590;-80
2021/04/01 12:14:44;;;;;;;6.27;3.70;;;23.20;60.50;;;;;;5083278;28;20471;-80
2021/04/01 12:17:10;;;;;;;6.93;4.00;;;23.30;59.60;;;;;;5110641;28;20493;-79
2021/04/01 12:19:37;;;;;;;7.23;3.90;;;23.40;59.80;;;;;;5100359;28;20452;-80
2021/04/01 12:22:06;;;;;;;9.50;3.30;;;23.40;59.90;;;;;;5081107;28;20513;-79
2021/04/01 12:24:33;;;;;;;8.87;3.87;;;23.30;59.80;;;;;;5093519;28;20976;-79
2021/04/01 12:26:59;;;;;;;7.13;4.27;;;23.20;60.20;;;;;;5068912;28;20542;-80
2021/04/01 12:29:26;;;;;;;6.60;3.67;;;23.30;60.60;;;;;;5079650;28;20801;-80
2021/04/01 12:31:56;;;;;;;5.80;3.70;;;23.40;59.70;;;;;;5078683;28;20486;-80
2021/04/01 12:34:24;;;;;;;8.40;4.30;;;23.40;59.90;;;;;;5093219;28;20479;-79
2021/04/01 12:36:50;;;;;;;6.70;3.80;;;23.50;59.40;;;;;;5058311;28;20488;-80
2021/04/01 12:39:28;;;;;;;7.40;4.23;;;23.60;59.20;;;;;;5058523;28;20460;-80
2021/04/01 12:41:54;;;;;;;8.50;3.47;;;23.70;59.90;;;;;;5059010;28;20444;-79
2021/04/01 12:44:21;;;;;;;8.73;4.10;;;23.70;58.70;;;;;;5074679;28;20476;-80
2021/04/01 12:46:47;;;;;;;8.60;3.83;;;23.70;58.60;;;;;;5096860;28;20536;-81
2021/04/01 12:49:16;;;;;;;8.23;4.30;;;23.80;58.60;;;;;;5099783;28;20474;-80
2021/04/01 12:51:45;;;;;;;8.13;4.10;;;23.80;58.20;;;;;;5100360;28;20458;-81
2021/04/01 12:54:14;;;;;;;9.20;3.77;;;23.70;58.20;;;;;;5090008;28;20487;-81
2021/04/01 12:56:42;;;;;;;9.93;3.80;;;23.80;58.10;;;;;;5078699;28;21011;-79
2021/04/01 12:59:11;;;;;;;6.53;3.83;;;23.60;57.90;;;;;;5079522;28;20981;-80
2021/04/01 13:01:40;;;;;;;13.90;4.07;;;23.60;57.60;;;;;;5078765;28;20444;-81
2021/04/01 13:04:08;;;;;;;11.17;3.50;;;23.70;56.50;;;;;;5091472;28;20471;-79
2021/04/01 13:06:43;;;;;;;8.70;3.10;;;23.80;56.10;;;;;;5100486;28;20462;-80
2021/04/01 13:09:26;;;;;;;5.77;3.83;;;24.00;55.80;;;;;;5097746;28;20853;-80
2021/04/01 13:11:54;;;;;;;6.87;4.37;;;24.00;56.00;;;;;;5101896;28;20463;-80
2021/04/01 13:14:21;;;;;;;5.97;2.80;;;24.10;55.10;;;;;;5088461;28;20479;-80
2021/04/01 13:16:48;;;;;;;7.37;4.53;;;23.80;55.30;;;;;;5079942;28;20537;-80
2021/04/01 13:19:15;;;;;;;4.50;3.07;;;23.80;55.50;;;;;;5080290;28;20556;-82
2021/04/01 13:21:52;;;;;;;7.60;3.80;;;23.90;54.40;;;;;;5081540;28;20551;-81
2021/04/01 13:24:22;;;;;;;6.47;3.47;;;23.90;54.20;;;;;;5082846;28;20495;-81
2021/04/01 13:26:49;;;;;;;9.33;4.00;;;23.80;54.30;;;;;;5084620;28;20543;-79
2021/04/01 13:29:20;;;;;;;6.60;4.17;;;23.80;54.70;;;;;;5085880;28;20527;-80
2021/04/01 13:31:48;;;;;;;9.13;4.10;;;23.90;55.40;;;;;;5085366;28;20471;-80
2021/04/01 13:34:18;;;;;;;6.57;4.20;;;23.80;56.70;;;;;;5091812;28;20479;-80
2021/04/01 13:36:49;;;;;;;5.17;3.63;;;23.70;57.10;;;;;;5102552;28;20522;-79
2021/04/01 13:39:19;;;;;;;6.90;4.10;;;23.60;57.00;;;;;;5097823;28;20840;-80
2021/04/01 13:44:28;;;;;;;7.60;4.23;;;23.70;57.20;;;;;;5081848;28;20471;-79
2021/04/01 13:46:55;;;;;;;6.60;3.63;;;23.80;56.80;;;;;;5076759;28;20958;-80
2021/04/01 13:49:24;;;;;;;7.80;4.40;;;23.70;56.70;;;;;;5076786;28;20467;-80
2021/04/01 13:51:56;;;;;;;7.50;4.30;;;23.70;55.30;;;;;;5076349;28;20459;-80